Tibbie, Alabama
Current Conditions -  °F | °C
As of 9:56 PM on Saturday 20 Dec 2014 (Local Time) from KMOB Reporting Station
Overcast Overcast  
Wind Chill: 46°   Ceiling: 1200
Heat Index: 49°   Visibility: 10mi
Dew Point: 47°   Wind: 7mph
Humidity: 93%   Direction: 30°NNE
Pressure: 30.15"   Gusts: NA
Location:  31.37°N, 88.25°W
Report Text: KMOB 210356Z 03006KT 10SM BKN012 OVC026 09/08 A3015 RMK AO2 SLP208 T00940083 $
Loading
Personal Weather Stations






























Interactive Weather Map New forecast layout! Learn more

10-Day Weather Forecast

Advertisements
Track Severe Weather on mobile